Terminal Aerodrome Forecast
Issued by NWS

Home | Current Version | Previous Version | Text Only | Print | Product List | Glossary On
Versions: 1 2 3 4 5 6 7 8 9 10 11 12
000
FTAK31 PAJN 241740
TAFAJN
TAF
PAJN 241740Z 2418/2518 VRB03KT P6SM FEW030 SCT200
     FM250300 09004KT P6SM VCSH SCT020 BKN050
     FM250900 12012KT 3SM -SN OVC015
     FM251500 30015KT P6SM VCSH BKN030 OVC050=

USA.gov is the U.S. government's official web portal to all federal, state and local government web resources and services.